createdAt,value
2022-08-29T00:01:36.453Z,7.90
2022-08-29T00:04:09.049Z,8.50
2022-08-29T00:06:41.022Z,8.10
2022-08-29T00:09:13.133Z,8.30
2022-08-29T00:11:46.382Z,7.60
2022-08-29T00:14:20.861Z,8.60
2022-08-29T00:16:56.108Z,8.20
2022-08-29T00:19:28.143Z,8.70
2022-08-29T00:21:59.993Z,7.80
2022-08-29T00:24:32.056Z,8.30
2022-08-29T00:27:04.138Z,8.40
2022-08-29T00:29:36.237Z,8.80
2022-08-29T00:32:08.596Z,8.70
2022-08-29T00:34:40.462Z,9.10
2022-08-29T00:37:12.427Z,9.10
2022-08-29T00:39:44.726Z,9.60
2022-08-29T00:42:16.595Z,8.50
2022-08-29T00:44:48.454Z,8.60
2022-08-29T00:47:24.214Z,9.30
2022-08-29T00:49:58.281Z,8.90
2022-08-29T00:52:35.808Z,9.80
2022-08-29T00:55:12.318Z,9.00
2022-08-29T00:57:49.487Z,9.60
2022-08-29T01:00:22.215Z,9.40
2022-08-29T01:02:55.096Z,9.50
2022-08-29T01:05:27.872Z,9.80
2022-08-29T01:08:00.642Z,9.60
2022-08-29T01:10:50.215Z,9.70
2022-08-29T01:13:23.607Z,9.70
2022-08-29T01:15:56.194Z,10.00
2022-08-29T01:18:30.810Z,11.00
2022-08-29T01:21:09.240Z,11.00
2022-08-29T01:23:48.752Z,11.40
2022-08-29T01:26:21.011Z,11.90
2022-08-29T01:28:55.681Z,12.40
2022-08-29T01:31:42.182Z,13.00
2022-08-29T01:34:22.853Z,13.10
2022-08-29T01:36:57.504Z,12.30
2022-08-29T01:39:31.969Z,12.90
2022-08-29T01:42:06.336Z,13.20
2022-08-29T01:44:38.897Z,14.50
2022-08-29T01:47:12.233Z,14.00
2022-08-29T01:49:46.804Z,14.40
2022-08-29T01:52:19.292Z,14.00
2022-08-29T01:54:51.571Z,15.40
2022-08-29T01:57:23.906Z,16.10
2022-08-29T01:59:56.885Z,18.10
2022-08-29T02:02:30.314Z,19.20
2022-08-29T02:05:02.168Z,21.10
2022-08-29T02:07:34.085Z,25.30
2022-08-29T02:10:08.395Z,23.50
2022-08-29T02:12:40.334Z,24.90
2022-08-29T02:15:14.771Z,26.00
2022-08-29T02:17:48.580Z,23.80
2022-08-29T02:20:20.637Z,24.00
2022-08-29T02:22:52.653Z,24.30
2022-08-29T02:25:42.986Z,24.70
2022-08-29T02:28:18.209Z,22.10
2022-08-29T02:30:56.331Z,23.20
2022-08-29T02:33:29.753Z,22.30
2022-08-29T02:36:04.395Z,23.00
2022-08-29T02:38:36.557Z,23.00
2022-08-29T02:41:13.626Z,23.30
2022-08-29T02:43:46.142Z,22.00
2022-08-29T02:46:20.727Z,22.50
2022-08-29T02:49:00.019Z,23.10
2022-08-29T02:51:34.664Z,24.20
2022-08-29T02:54:07.049Z,23.90
2022-08-29T02:56:39.366Z,24.80
2022-08-29T02:59:11.470Z,24.20
2022-08-29T03:01:43.327Z,25.30
2022-08-29T03:04:15.230Z,26.60
2022-08-29T03:06:47.147Z,26.70
2022-08-29T03:09:19.005Z,26.40
2022-08-29T03:11:52.664Z,28.30
2022-08-29T03:14:24.555Z,29.70
2022-08-29T03:16:56.463Z,30.70
2022-08-29T03:19:29.150Z,29.80
2022-08-29T03:22:01.871Z,30.40
2022-08-29T03:24:35.148Z,30.90
2022-08-29T03:27:07.716Z,30.10
2022-08-29T03:29:39.618Z,30.40
2022-08-29T03:32:11.859Z,29.20
2022-08-29T03:34:43.693Z,29.00
2022-08-29T03:37:15.625Z,27.00
2022-08-29T03:39:47.861Z,27.90
2022-08-29T03:42:19.878Z,26.50
2022-08-29T03:44:52.173Z,26.70
2022-08-29T03:47:24.261Z,24.70
2022-08-29T03:49:56.144Z,23.80
2022-08-29T03:52:28.005Z,23.00
2022-08-29T03:55:00.717Z,22.10
2022-08-29T03:57:33.818Z,22.70
2022-08-29T04:00:12.111Z,21.70
2022-08-29T04:02:44.680Z,20.40
2022-08-29T04:05:18.191Z,18.20
2022-08-29T04:07:53.831Z,18.10
2022-08-29T04:10:28.516Z,18.30
2022-08-29T04:13:01.551Z,18.60
2022-08-29T04:15:33.736Z,17.20
2022-08-29T04:18:08.683Z,16.10
2022-08-29T04:20:44.977Z,16.20
2022-08-29T04:23:17.653Z,17.30
2022-08-29T04:25:49.484Z,17.40
2022-08-29T04:28:21.400Z,16.50
2022-08-29T04:30:54.949Z,16.70
2022-08-29T04:33:27.996Z,16.00
2022-08-29T04:36:00.181Z,15.60
2022-08-29T04:38:32.120Z,14.00
2022-08-29T04:41:08.206Z,14.50
2022-08-29T04:43:40.261Z,14.40
2022-08-29T04:46:24.108Z,12.70
2022-08-29T04:49:00.568Z,11.40
2022-08-29T04:51:36.871Z,10.50
2022-08-29T04:54:09.432Z,10.30
2022-08-29T04:56:45.784Z,9.60
2022-08-29T04:59:20.509Z,9.20
2022-08-29T05:01:52.466Z,8.00
2022-08-29T05:04:24.441Z,7.10
2022-08-29T05:06:56.494Z,6.10
2022-08-29T05:09:28.653Z,5.60
2022-08-29T05:12:00.714Z,4.20
2022-08-29T05:14:32.623Z,4.10
2022-08-29T05:17:04.688Z,4.60
2022-08-29T05:19:42.879Z,4.20
2022-08-29T05:22:19.744Z,3.60
2022-08-29T05:24:52.796Z,3.40
2022-08-29T05:27:24.899Z,3.50
2022-08-29T05:29:58.525Z,3.70
2022-08-29T05:32:30.860Z,3.40
2022-08-29T05:35:04.123Z,4.40
2022-08-29T05:37:36.435Z,3.50
2022-08-29T05:40:10.347Z,3.70
2022-08-29T05:42:42.256Z,4.00
2022-08-29T05:45:14.985Z,3.80
2022-08-29T05:47:47.038Z,4.60
2022-08-29T05:50:19.323Z,4.50
2022-08-29T05:52:51.286Z,4.50
2022-08-29T05:55:23.850Z,4.70
2022-08-29T05:57:55.773Z,4.40
2022-08-29T06:00:28.080Z,4.60
2022-08-29T06:03:00.310Z,4.80
2022-08-29T06:05:32.371Z,5.00
2022-08-29T06:08:05.047Z,4.80
2022-08-29T06:10:40.508Z,5.60
2022-08-29T06:13:12.679Z,5.30
2022-08-29T06:15:46.759Z,5.30
2022-08-29T06:18:18.712Z,4.80
2022-08-29T06:20:59.421Z,5.20
2022-08-29T06:23:31.343Z,5.50
2022-08-29T06:26:03.907Z,5.40
2022-08-29T06:28:37.998Z,5.30
2022-08-29T06:31:12.673Z,6.10
2022-08-29T06:33:45.196Z,5.50
2022-08-29T06:36:17.425Z,5.70
2022-08-29T06:38:49.728Z,6.40
2022-08-29T06:41:21.893Z,6.50
2022-08-29T06:43:55.728Z,6.50
2022-08-29T06:46:30.615Z,6.50
2022-08-29T06:49:04.843Z,7.30
2022-08-29T06:51:38.878Z,7.40
2022-08-29T06:54:12.084Z,7.10
2022-08-29T06:56:45.779Z,7.40
2022-08-29T06:59:18.848Z,7.00
2022-08-29T07:01:50.990Z,7.00
2022-08-29T07:04:23.155Z,8.40
2022-08-29T07:06:58.830Z,8.90
2022-08-29T07:09:32.414Z,7.50
2022-08-29T07:12:06.025Z,7.00
2022-08-29T07:14:38.042Z,6.90
2022-08-29T07:17:10.711Z,7.70
2022-08-29T07:19:54.467Z,8.30
2022-08-29T07:22:27.206Z,6.90
2022-08-29T07:24:59.592Z,7.00
2022-08-29T07:27:31.517Z,6.80
2022-08-29T07:30:03.644Z,6.60
2022-08-29T07:32:35.547Z,6.30
2022-08-29T07:35:11.569Z,6.70
2022-08-29T07:37:50.243Z,7.30
2022-08-29T07:40:22.911Z,7.50
2022-08-29T07:42:55.599Z,5.90
2022-08-29T07:45:27.451Z,6.40
2022-08-29T07:47:59.780Z,6.00
2022-08-29T07:50:31.683Z,7.00
2022-08-29T07:53:03.567Z,5.70
2022-08-29T07:55:35.608Z,6.30
2022-08-29T07:58:07.699Z,6.60
2022-08-29T08:00:39.736Z,5.90
2022-08-29T08:03:14.287Z,5.70
2022-08-29T08:05:46.344Z,6.00
2022-08-29T08:08:18.802Z,6.10
2022-08-29T08:10:52.301Z,5.20
2022-08-29T08:13:24.381Z,5.60
2022-08-29T08:15:56.677Z,5.50
2022-08-29T08:18:29.722Z,5.70
2022-08-29T08:21:01.803Z,5.40
2022-08-29T08:23:33.855Z,5.60
2022-08-29T08:26:06.360Z,5.60
2022-08-29T08:28:39.120Z,5.40
2022-08-29T08:31:14.194Z,5.40
2022-08-29T08:33:47.920Z,5.50
2022-08-29T08:36:23.237Z,6.30
2022-08-29T08:38:56.819Z,6.10
2022-08-29T08:41:39.266Z,6.30
2022-08-29T08:44:35.324Z,6.00
2022-08-29T08:47:10.465Z,6.80
2022-08-29T08:49:50.165Z,6.70
2022-08-29T08:52:29.122Z,7.40
2022-08-29T08:55:06.051Z,7.10
2022-08-29T08:57:46.379Z,7.30
2022-08-29T09:00:18.470Z,7.50
2022-08-29T09:03:03.823Z,8.10
2022-08-29T09:05:49.840Z,8.00
2022-08-29T09:08:31.254Z,8.10
2022-08-29T09:11:09.754Z,7.30
2022-08-29T09:13:54.323Z,7.40
2022-08-29T09:16:31.659Z,6.80
2022-08-29T09:19:08.058Z,5.70
2022-08-29T09:21:48.427Z,5.50
2022-08-29T09:24:28.897Z,5.40
2022-08-29T09:27:01.000Z,5.00
2022-08-29T09:29:33.962Z,4.50
2022-08-29T09:32:16.582Z,3.70
2022-08-29T09:35:07.929Z,4.10
2022-08-29T09:37:41.271Z,4.50
2022-08-29T09:40:19.298Z,4.20
2022-08-29T09:43:04.183Z,3.90
2022-08-29T09:45:36.073Z,3.90
2022-08-29T09:48:19.567Z,4.20
2022-08-29T09:50:51.610Z,3.60
2022-08-29T09:53:26.931Z,3.50
2022-08-29T09:56:08.471Z,4.20
2022-08-29T09:58:43.036Z,3.70
2022-08-29T10:01:26.211Z,3.70
2022-08-29T10:04:02.642Z,3.40
2022-08-29T10:06:44.246Z,3.50
2022-08-29T10:09:28.839Z,3.00
2022-08-29T10:12:07.192Z,3.00
2022-08-29T10:14:49.734Z,3.20
2022-08-29T10:17:47.343Z,2.70
2022-08-29T10:20:21.014Z,3.10
2022-08-29T10:23:04.384Z,3.30
2022-08-29T10:25:40.458Z,3.10
2022-08-29T10:28:21.586Z,2.80
2022-08-29T10:30:57.984Z,2.80
2022-08-29T10:36:14.091Z,2.70
2022-08-29T10:38:51.200Z,2.90
2022-08-29T10:41:33.474Z,2.60
2022-08-29T10:44:20.439Z,2.40
2022-08-29T10:47:04.554Z,2.50
2022-08-29T10:49:46.911Z,2.90
2022-08-29T10:52:27.713Z,2.60
2022-08-29T10:55:09.861Z,2.80
2022-08-29T10:58:03.501Z,2.60
2022-08-29T11:00:43.433Z,3.10
2022-08-29T11:03:30.078Z,2.30
2022-08-29T11:06:06.082Z,2.30
2022-08-29T11:08:45.723Z,2.90
2022-08-29T11:11:22.539Z,2.70
2022-08-29T11:14:03.527Z,2.80
2022-08-29T11:16:43.436Z,2.10
2022-08-29T11:19:22.630Z,2.30
2022-08-29T11:22:00.107Z,2.50
2022-08-29T11:24:38.004Z,2.60
2022-08-29T11:27:20.389Z,2.40
2022-08-29T11:30:06.393Z,2.30
2022-08-29T11:32:52.272Z,2.30
2022-08-29T11:35:32.512Z,2.20
2022-08-29T11:38:18.738Z,2.50
2022-08-29T11:44:05.567Z,2.40
2022-08-29T11:46:44.221Z,2.80
2022-08-29T11:49:33.986Z,2.70
2022-08-29T11:52:22.497Z,2.80
2022-08-29T11:55:18.808Z,2.50
2022-08-29T11:58:04.184Z,2.50
2022-08-29T12:00:45.409Z,2.50
2022-08-29T12:03:56.917Z,2.50
2022-08-29T12:06:37.157Z,2.60
2022-08-29T12:09:27.539Z,2.80
2022-08-29T12:12:39.867Z,2.70
2022-08-29T12:15:41.893Z,2.70
2022-08-29T12:18:36.669Z,2.70
2022-08-29T12:21:47.232Z,2.70
2022-08-29T12:24:55.183Z,2.50
2022-08-29T12:28:01.075Z,2.30
2022-08-29T12:30:38.613Z,2.50
2022-08-29T12:33:25.354Z,2.70
2022-08-29T12:36:19.265Z,3.30
2022-08-29T12:39:04.471Z,3.00
2022-08-29T12:41:49.784Z,2.20
2022-08-29T12:44:28.027Z,2.90
2022-08-29T12:47:08.657Z,2.30
2022-08-29T12:49:50.950Z,2.40
2022-08-29T12:52:27.982Z,2.60
2022-08-29T12:55:19.335Z,2.10
2022-08-29T12:57:52.405Z,2.40
2022-08-29T13:00:28.275Z,2.30
2022-08-29T13:03:03.611Z,2.50
2022-08-29T13:05:38.692Z,2.40
2022-08-29T13:08:13.591Z,2.60
2022-08-29T13:10:58.811Z,2.50
2022-08-29T13:13:31.263Z,2.20
2022-08-29T13:16:07.024Z,2.50
2022-08-29T13:18:53.947Z,2.00
2022-08-29T13:21:33.200Z,2.10
2022-08-29T13:24:11.802Z,2.40
2022-08-29T13:27:04.241Z,2.30
2022-08-29T13:29:41.932Z,2.20
2022-08-29T13:32:26.892Z,2.30
2022-08-29T13:35:19.127Z,1.90
2022-08-29T13:38:18.541Z,2.10
2022-08-29T13:40:52.124Z,2.00
2022-08-29T13:43:35.141Z,2.00
2022-08-29T13:46:18.152Z,1.90
2022-08-29T13:48:58.926Z,2.00
2022-08-29T13:51:30.918Z,2.10
2022-08-29T13:54:03.628Z,2.20
2022-08-29T13:56:38.761Z,2.60
2022-08-29T13:59:11.942Z,2.70
2022-08-29T14:04:39.851Z,2.00
2022-08-29T14:09:46.680Z,2.40
2022-08-29T14:12:19.386Z,2.00
2022-08-29T14:14:53.793Z,2.30
2022-08-29T14:17:26.609Z,2.50
2022-08-29T14:19:58.659Z,2.20
2022-08-29T14:22:31.406Z,2.10
2022-08-29T14:25:03.434Z,2.20
2022-08-29T14:27:35.627Z,2.10
2022-08-29T14:30:10.790Z,2.10
2022-08-29T14:32:42.953Z,2.30
2022-08-29T14:35:20.822Z,2.00
2022-08-29T14:38:00.116Z,2.50
2022-08-29T14:40:33.946Z,2.20
2022-08-29T14:43:06.389Z,2.20
2022-08-29T14:45:38.695Z,2.10
2022-08-29T14:48:10.956Z,2.20
2022-08-29T14:50:42.862Z,2.70
2022-08-29T14:53:15.037Z,2.40
2022-08-29T14:55:47.041Z,2.90
2022-08-29T14:58:19.187Z,2.30
2022-08-29T15:00:51.589Z,2.70
2022-08-29T15:03:26.728Z,2.70
2022-08-29T15:05:59.691Z,2.30
2022-08-29T15:08:31.619Z,2.60
2022-08-29T15:11:04.197Z,2.20
2022-08-29T15:13:36.181Z,2.10
2022-08-29T15:16:09.087Z,2.70
2022-08-29T15:19:26.474Z,2.70
2022-08-29T15:21:33.918Z,2.20
2022-08-29T15:24:07.143Z,2.40
2022-08-29T15:26:39.251Z,2.40
2022-08-29T15:29:11.674Z,2.30
2022-08-29T15:31:43.818Z,2.40
2022-08-29T15:34:15.933Z,2.50
2022-08-29T15:36:47.839Z,2.70
2022-08-29T15:39:22.959Z,2.40
2022-08-29T15:41:55.241Z,2.30
2022-08-29T15:44:28.321Z,2.30
2022-08-29T15:47:00.465Z,2.90
2022-08-29T15:49:34.082Z,2.40
2022-08-29T15:52:06.262Z,2.30
2022-08-29T15:54:38.255Z,2.50
2022-08-29T15:57:11.177Z,2.50
2022-08-29T15:59:57.567Z,2.40
2022-08-29T16:05:02.139Z,2.30
2022-08-29T16:07:34.198Z,2.40
2022-08-29T16:10:11.028Z,2.40
2022-08-29T16:12:43.910Z,2.60
2022-08-29T16:15:16.476Z,2.40
2022-08-29T16:17:48.976Z,2.60
2022-08-29T16:20:21.001Z,2.40
2022-08-29T16:22:53.249Z,2.10
2022-08-29T16:25:26.933Z,2.20
2022-08-29T16:28:06.209Z,2.20
2022-08-29T16:30:46.214Z,2.40
2022-08-29T16:33:19.617Z,2.70
2022-08-29T16:35:51.836Z,2.00
2022-08-29T16:38:23.857Z,2.50
2022-08-29T16:41:06.152Z,2.40
2022-08-29T16:43:39.473Z,2.10
2022-08-29T16:46:14.870Z,2.70
2022-08-29T16:48:47.238Z,2.00
2022-08-29T16:51:20.750Z,3.40
2022-08-29T16:53:52.731Z,2.60
2022-08-29T16:56:25.817Z,2.70
2022-08-29T16:59:01.650Z,2.20
2022-08-29T17:01:36.841Z,2.70
2022-08-29T17:04:12.048Z,2.30
2022-08-29T17:06:46.589Z,2.30
2022-08-29T17:09:19.224Z,2.50
2022-08-29T17:11:51.151Z,2.10
2022-08-29T17:14:24.310Z,2.50
2022-08-29T17:16:56.942Z,2.20
2022-08-29T17:19:29.051Z,2.80
2022-08-29T17:22:05.235Z,2.80
2022-08-29T17:24:37.157Z,2.90
2022-08-29T17:27:10.430Z,2.50
2022-08-29T17:29:43.142Z,3.10
2022-08-29T17:32:15.648Z,2.80
2022-08-29T17:34:48.653Z,3.00
2022-08-29T17:37:20.529Z,4.60
2022-08-29T17:39:52.579Z,2.80
2022-08-29T17:42:25.482Z,2.90
2022-08-29T17:44:58.554Z,2.90
2022-08-29T17:47:30.760Z,3.20
2022-08-29T17:50:02.977Z,2.60
2022-08-29T17:52:34.962Z,3.00
2022-08-29T17:55:08.474Z,3.10
2022-08-29T17:57:40.453Z,2.70
2022-08-29T18:00:16.364Z,2.60
2022-08-29T18:02:48.719Z,3.00
2022-08-29T18:05:21.328Z,3.90
2022-08-29T18:07:53.140Z,4.10
2022-08-29T18:10:25.558Z,3.30
2022-08-29T18:12:57.616Z,2.80
2022-08-29T18:15:29.976Z,3.40
2022-08-29T18:18:09.709Z,3.20
2022-08-29T18:20:41.738Z,3.10
2022-08-29T18:23:13.971Z,3.00
2022-08-29T18:25:46.192Z,3.20
2022-08-29T18:28:19.063Z,2.80
2022-08-29T18:30:51.545Z,3.20
2022-08-29T18:33:28.466Z,3.90
2022-08-29T18:36:08.384Z,4.40
2022-08-29T18:38:40.331Z,4.10
2022-08-29T18:41:12.730Z,3.50
2022-08-29T18:43:44.943Z,4.10
2022-08-29T18:46:16.989Z,3.70
2022-08-29T18:48:48.955Z,4.00
2022-08-29T18:51:21.881Z,3.90
2022-08-29T18:53:54.062Z,3.60
2022-08-29T18:56:26.376Z,3.40
2022-08-29T18:58:59.317Z,3.10
2022-08-29T19:01:32.312Z,3.20
2022-08-29T19:04:05.108Z,3.50
2022-08-29T19:06:37.106Z,3.80
2022-08-29T19:09:09.234Z,3.50
2022-08-29T19:11:41.123Z,3.20
2022-08-29T19:14:13.637Z,3.10
2022-08-29T19:16:45.681Z,3.40
2022-08-29T19:19:17.706Z,3.90
2022-08-29T19:21:52.476Z,4.10
2022-08-29T19:24:24.586Z,4.10
2022-08-29T19:26:57.028Z,3.80
2022-08-29T19:29:29.102Z,4.20
2022-08-29T19:32:01.165Z,4.40
2022-08-29T19:34:33.109Z,3.90
2022-08-29T19:37:06.548Z,3.80
2022-08-29T19:39:42.056Z,4.30
2022-08-29T19:42:16.237Z,3.60
2022-08-29T19:44:49.162Z,4.30
2022-08-29T19:47:21.145Z,4.30
2022-08-29T19:49:53.080Z,3.80
2022-08-29T19:52:24.947Z,4.00
2022-08-29T19:55:00.179Z,4.30
2022-08-29T19:57:32.325Z,4.40
2022-08-29T20:00:13.505Z,4.20
2022-08-29T20:02:46.143Z,3.70
2022-08-29T20:05:19.104Z,4.30
2022-08-29T20:07:54.240Z,4.20
2022-08-29T20:10:29.260Z,4.30
2022-08-29T20:13:01.792Z,4.20
2022-08-29T20:15:34.196Z,3.80
2022-08-29T20:18:06.634Z,4.40
2022-08-29T20:20:41.864Z,4.20
2022-08-29T20:23:14.764Z,3.60
2022-08-29T20:25:47.280Z,4.50
2022-08-29T20:28:19.381Z,4.20
2022-08-29T20:30:51.518Z,4.40
2022-08-29T20:33:23.364Z,4.30
2022-08-29T20:36:13.422Z,4.30
2022-08-29T20:38:45.519Z,4.30
2022-08-29T20:41:21.249Z,4.20
2022-08-29T20:43:53.434Z,3.90
2022-08-29T20:46:25.592Z,3.90
2022-08-29T20:48:58.081Z,4.60
2022-08-29T20:51:29.966Z,4.10
2022-08-29T20:54:01.829Z,4.40
2022-08-29T20:56:34.151Z,4.30
2022-08-29T20:59:07.224Z,3.80
2022-08-29T21:01:40.322Z,3.70
2022-08-29T21:04:30.972Z,4.00
2022-08-29T21:07:05.636Z,4.10
2022-08-29T21:09:40.347Z,4.10
2022-08-29T21:12:13.617Z,4.30
2022-08-29T21:14:46.367Z,4.00
2022-08-29T21:17:19.586Z,4.80
2022-08-29T21:19:51.492Z,4.40
2022-08-29T21:22:25.209Z,4.70
2022-08-29T21:24:58.350Z,4.80
2022-08-29T21:27:30.743Z,4.50
2022-08-29T21:30:02.714Z,4.50
2022-08-29T21:32:34.644Z,5.00
2022-08-29T21:35:07.343Z,4.40
2022-08-29T21:37:39.228Z,5.00
2022-08-29T21:40:14.416Z,4.70
2022-08-29T21:42:46.465Z,5.00
2022-08-29T21:45:18.527Z,4.50
2022-08-29T21:47:52.327Z,4.70
2022-08-29T21:50:26.068Z,5.00
2022-08-29T21:52:57.986Z,4.80
2022-08-29T21:55:30.476Z,4.80
2022-08-29T21:58:02.428Z,4.90
2022-08-29T22:00:36.426Z,4.90
2022-08-29T22:03:12.363Z,4.90
2022-08-29T22:05:44.858Z,5.20
2022-08-29T22:08:17.232Z,5.10
2022-08-29T22:10:49.994Z,5.00
2022-08-29T22:13:22.199Z,5.40
2022-08-29T22:16:11.906Z,5.60
2022-08-29T22:18:43.919Z,4.90
2022-08-29T22:21:16.508Z,5.70
2022-08-29T22:23:48.358Z,5.40
2022-08-29T22:26:21.060Z,5.60
2022-08-29T22:28:53.001Z,5.50
2022-08-29T22:31:26.756Z,6.30
2022-08-29T22:33:58.715Z,6.10
2022-08-29T22:36:30.763Z,6.20
2022-08-29T22:39:03.873Z,6.00
2022-08-29T22:41:35.869Z,6.30
2022-08-29T22:44:52.637Z,6.30
2022-08-29T22:47:00.538Z,5.70
2022-08-29T22:49:34.143Z,5.90
2022-08-29T22:52:06.670Z,6.30
2022-08-29T22:54:43.494Z,6.50
2022-08-29T22:57:19.130Z,5.90
2022-08-29T22:59:51.464Z,6.30
2022-08-29T23:02:23.637Z,6.00
2022-08-29T23:04:55.861Z,5.80
2022-08-29T23:07:27.818Z,6.60
2022-08-29T23:10:00.210Z,6.40
2022-08-29T23:12:32.304Z,6.30
2022-08-29T23:15:05.087Z,6.00
2022-08-29T23:17:37.154Z,6.20
2022-08-29T23:20:11.991Z,6.50
2022-08-29T23:22:44.371Z,6.40
2022-08-29T23:25:16.315Z,6.00
2022-08-29T23:27:48.694Z,6.80
2022-08-29T23:30:20.563Z,6.00
2022-08-29T23:32:52.822Z,7.30
2022-08-29T23:35:25.118Z,6.60
2022-08-29T23:37:58.673Z,6.60
2022-08-29T23:40:30.555Z,7.20
2022-08-29T23:43:02.828Z,7.10
2022-08-29T23:45:35.032Z,6.90
2022-08-29T23:48:07.672Z,6.90
2022-08-29T23:50:40.085Z,7.60
2022-08-29T23:53:12.236Z,7.20
2022-08-29T23:55:44.349Z,7.20
2022-08-29T23:58:16.497Z,7.40
